Time;durP1;ratioP1;P1;durP2;ratioP2;P2;SDS_P1;SDS_P2;PMS_P1;PMS_P2;Temp;Humidity;BMP_temperature;BMP_pressure;BME280_temperature;BME280_humidity;BME280_pressure;Samples;Min_cycle;Max_cycle;Signal;HPM_P1;HPM_P2
2023/10/18 00:02:46;;;;;;;6.72;2.40;;;11.60;99.90;;;;;;5031642;28;20546;-56
2023/10/18 00:05:12;;;;;;;8.38;2.33;;;11.60;99.90;;;;;;5031457;28;20033;-57
2023/10/18 00:07:39;;;;;;;5.45;2.13;;;11.60;99.90;;;;;;5031330;28;20029;-52
2023/10/18 00:10:08;;;;;;;5.80;2.22;;;11.60;99.90;;;;;;5031244;28;20036;-58
2023/10/18 00:12:34;;;;;;;6.35;2.28;;;11.60;99.90;;;;;;5031101;28;20030;-58
2023/10/18 00:15:00;;;;;;;4.63;2.03;;;11.60;99.90;;;;;;5031316;28;20029;-53
2023/10/18 00:17:26;;;;;;;4.82;2.17;;;11.60;99.90;;;;;;5031080;28;20079;-58
2023/10/18 00:19:52;;;;;;;5.47;2.72;;;11.60;99.90;;;;;;5031120;28;20036;-58
2023/10/18 00:22:18;;;;;;;6.90;2.55;;;11.60;99.90;;;;;;5031144;28;20022;-55
2023/10/18 00:24:43;;;;;;;8.27;2.50;;;11.70;99.90;;;;;;5031073;28;20037;-57
2023/10/18 00:27:09;;;;;;;5.20;2.22;;;11.60;99.90;;;;;;5030826;28;20068;-57
2023/10/18 00:29:36;;;;;;;6.50;2.40;;;11.70;99.90;;;;;;5030880;28;20041;-56
2023/10/18 00:32:03;;;;;;;4.10;2.15;;;11.70;99.90;;;;;;5030755;28;20065;-57
2023/10/18 00:34:29;;;;;;;11.32;4.65;;;11.70;99.90;;;;;;5031021;28;20026;-56
2023/10/18 00:36:55;;;;;;;7.40;2.80;;;11.60;99.90;;;;;;5030631;28;20029;-57
2023/10/18 00:39:32;;;;;;;4.50;2.00;;;11.60;99.90;;;;;;5030800;28;20036;-52
2023/10/18 00:44:42;;;;;;;6.28;2.47;;;11.70;99.90;;;;;;5030586;28;20036;-56
2023/10/18 00:47:12;;;;;;;5.38;2.17;;;11.70;99.90;;;;;;5030641;28;20021;-54
2023/10/18 00:49:38;;;;;;;5.97;2.70;;;11.60;99.90;;;;;;5030700;28;20120;-54
2023/10/18 00:52:04;;;;;;;7.82;2.45;;;11.60;99.90;;;;;;5030388;28;20446;-57
2023/10/18 00:54:30;;;;;;;3.55;2.10;;;11.60;99.90;;;;;;5030631;28;20038;-61
2023/10/18 00:56:56;;;;;;;7.55;2.42;;;11.60;99.90;;;;;;5030532;28;20021;-55
2023/10/18 00:59:21;;;;;;;3.88;2.30;;;11.60;99.90;;;;;;5030467;28;20034;-59
2023/10/18 01:04:34;;;;;;;5.07;2.40;;;11.60;99.90;;;;;;5030731;28;20040;-55
2023/10/18 01:07:11;;;;;;;4.60;2.10;;;11.60;99.90;;;;;;5030536;28;20022;-54
2023/10/18 01:09:36;;;;;;;11.43;2.25;;;11.60;99.90;;;;;;5030432;28;20033;-50
2023/10/18 01:12:02;;;;;;;6.43;2.45;;;11.60;99.90;;;;;;5030467;28;20732;-51
2023/10/18 01:14:28;;;;;;;7.45;2.42;;;11.60;99.90;;;;;;5030235;28;20500;-53
2023/10/18 01:16:53;;;;;;;4.97;2.45;;;11.50;99.90;;;;;;5030466;28;20028;-55
2023/10/18 01:19:19;;;;;;;6.53;2.42;;;11.50;99.90;;;;;;5030415;28;21090;-53
2023/10/18 01:21:51;;;;;;;5.10;2.35;;;11.50;99.90;;;;;;5030462;28;20025;-55
2023/10/18 01:24:18;;;;;;;5.78;2.88;;;11.50;99.90;;;;;;5030362;28;20036;-52
2023/10/18 01:26:44;;;;;;;8.48;2.80;;;11.50;99.90;;;;;;5030201;28;20169;-58
2023/10/18 01:29:10;;;;;;;5.63;2.50;;;11.50;99.90;;;;;;5030208;28;20488;-54
2023/10/18 01:31:42;;;;;;;5.00;2.30;;;11.50;99.90;;;;;;5030016;28;20040;-51
2023/10/18 01:34:10;;;;;;;7.20;2.92;;;11.50;99.90;;;;;;5030290;28;20464;-56
2023/10/18 01:36:39;;;;;;;11.80;2.75;;;11.50;99.90;;;;;;5030194;28;20491;-59
2023/10/18 01:42:13;;;;;;;7.93;2.97;;;11.50;99.90;;;;;;5008108;28;20033;-54
2023/10/18 01:44:39;;;;;;;7.38;2.50;;;11.50;99.90;;;;;;5008132;28;20058;-58
2023/10/18 01:47:06;;;;;;;5.18;2.53;;;11.50;99.90;;;;;;5014225;28;20499;-58
2023/10/18 01:49:34;;;;;;;5.03;2.17;;;11.50;99.90;;;;;;5029977;28;20497;-57
2023/10/18 01:51:59;;;;;;;5.38;2.78;;;11.50;99.90;;;;;;5029989;28;20021;-56
2023/10/18 01:54:25;;;;;;;6.82;2.75;;;11.50;99.90;;;;;;5030044;28;20037;-56
2023/10/18 01:57:03;;;;;;;6.03;2.65;;;11.40;99.90;;;;;;5029775;28;20054;-56
2023/10/18 01:59:28;;;;;;;7.22;3.63;;;11.40;99.90;;;;;;5030069;28;20034;-53
2023/10/18 02:01:57;;;;;;;6.32;2.70;;;11.40;99.90;;;;;;5029920;28;20032;-53
2023/10/18 02:04:26;;;;;;;10.45;3.25;;;11.40;99.90;;;;;;5029828;28;20534;-54
2023/10/18 02:07:02;;;;;;;;;;;11.40;99.90;;;;;;5030150;28;20026;-55
2023/10/18 02:09:30;;;;;;;8.40;3.08;;;11.40;99.90;;;;;;5029731;28;19913;-53
2023/10/18 02:11:56;;;;;;;6.05;2.78;;;11.40;99.90;;;;;;5029993;28;20029;-54
2023/10/18 02:14:22;;;;;;;6.50;2.88;;;11.40;99.90;;;;;;5030404;28;20475;-55
2023/10/18 02:16:48;;;;;;;5.55;2.80;;;11.30;99.90;;;;;;5033343;28;20405;-53
2023/10/18 02:19:16;;;;;;;6.18;3.20;;;11.40;99.90;;;;;;5033284;28;20036;-53
2023/10/18 02:21:41;;;;;;;7.32;3.13;;;11.30;99.90;;;;;;5033680;28;20021;-56
2023/10/18 02:24:11;;;;;;;8.45;3.40;;;11.40;99.90;;;;;;5033089;28;20453;-54
2023/10/18 02:26:39;;;;;;;;;;;11.40;99.90;;;;;;5033436;28;20026;-57
2023/10/18 02:29:12;;;;;;;9.70;3.53;;;11.40;99.90;;;;;;5033077;28;19917;-53
2023/10/18 02:31:41;;;;;;;8.57;3.58;;;11.40;99.90;;;;;;5032785;28;20024;-55
2023/10/18 02:34:08;;;;;;;8.00;3.40;;;11.40;99.90;;;;;;5032905;28;20033;-53
2023/10/18 02:36:40;;;;;;;6.03;2.90;;;11.40;99.90;;;;;;5032709;28;20028;-53
2023/10/18 02:39:07;;;;;;;6.63;3.25;;;11.40;99.90;;;;;;5032728;28;20075;-53
2023/10/18 02:41:36;;;;;;;6.65;3.30;;;11.40;99.90;;;;;;5032848;28;20376;-55
2023/10/18 02:44:07;;;;;;;6.00;3.00;;;11.40;99.90;;;;;;5032758;28;20444;-54
2023/10/18 02:46:33;;;;;;;5.60;2.88;;;11.40;99.90;;;;;;5032729;28;20553;-56
2023/10/18 02:49:00;;;;;;;8.73;3.08;;;11.50;99.90;;;;;;5033140;28;20033;-55
2023/10/18 02:51:28;;;;;;;6.95;2.97;;;11.50;99.90;;;;;;5032978;28;20030;-54
2023/10/18 02:54:07;;;;;;;5.43;2.80;;;11.50;99.90;;;;;;5032851;28;20053;-56
2023/10/18 02:56:37;;;;;;;;;;;11.50;99.90;;;;;;5033274;28;20037;-54
2023/10/18 02:59:13;;;;;;;5.32;2.47;;;11.50;99.90;;;;;;5032468;28;19909;-56
2023/10/18 03:01:40;;;;;;;6.75;3.25;;;11.50;99.90;;;;;;5032353;28;20488;-56
2023/10/18 03:04:16;;;;;;;7.57;3.28;;;11.50;99.90;;;;;;5032286;28;20044;-53
2023/10/18 03:06:50;;;;;;;12.10;3.63;;;11.50;99.90;;;;;;5032413;28;20029;-54
2023/10/18 03:09:38;;;;;;;7.85;3.72;;;11.50;99.90;;;;;;5031893;28;20443;-56
2023/10/18 03:12:13;;;;;;;6.05;2.88;;;11.50;99.90;;;;;;5032174;28;20100;-57
2023/10/18 03:14:48;;;;;;;7.63;3.40;;;11.60;99.90;;;;;;5032070;28;20080;-58
2023/10/18 03:17:18;;;;;;;6.35;2.85;;;11.60;99.90;;;;;;5032151;28;20026;-53
2023/10/18 03:19:44;;;;;;;7.05;2.75;;;11.60;99.90;;;;;;5031800;28;20112;-50
2023/10/18 03:22:13;;;;;;;5.55;2.72;;;11.60;99.90;;;;;;5031739;28;20021;-56
2023/10/18 03:24:39;;;;;;;9.13;3.50;;;11.60;99.90;;;;;;5031961;28;20032;-55
2023/10/18 03:27:08;;;;;;;6.32;3.03;;;11.60;99.90;;;;;;5031611;28;20105;-57
2023/10/18 03:29:37;;;;;;;7.15;3.58;;;11.60;99.90;;;;;;5031578;28;20095;-53
2023/10/18 03:32:06;;;;;;;8.55;3.00;;;11.60;99.90;;;;;;5031482;28;20045;-55
2023/10/18 03:34:35;;;;;;;6.93;3.92;;;11.60;99.90;;;;;;5031555;28;20033;-55
2023/10/18 03:37:04;;;;;;;6.50;2.70;;;11.60;99.90;;;;;;5031817;28;20103;-56
2023/10/18 03:39:30;;;;;;;6.05;3.00;;;11.50;99.90;;;;;;5031854;28;20342;-53
2023/10/18 03:42:00;;;;;;;9.98;3.25;;;11.50;99.90;;;;;;5031724;28;20022;-54
2023/10/18 03:44:26;;;;;;;6.53;2.85;;;11.50;99.90;;;;;;5031594;28;20499;-54
2023/10/18 03:47:03;;;;;;;7.15;3.13;;;11.50;99.90;;;;;;5031352;28;20021;-58
2023/10/18 03:51:57;;;;;;;6.10;3.17;;;11.40;99.90;;;;;;5031176;28;20037;-57
2023/10/18 03:54:26;;;;;;;5.32;2.95;;;11.40;99.90;;;;;;5030331;28;20026;-55
2023/10/18 03:56:53;;;;;;;8.88;3.35;;;11.40;99.90;;;;;;5031082;28;20169;-55
2023/10/18 03:59:24;;;;;;;7.97;3.67;;;11.40;99.90;;;;;;5031220;28;20037;-54
2023/10/18 04:02:07;;;;;;;5.43;2.88;;;11.40;99.90;;;;;;5031380;28;20024;-55
2023/10/18 04:04:37;;;;;;;14.05;3.88;;;11.30;99.90;;;;;;5031020;28;20468;-53
2023/10/18 04:07:12;;;;;;;7.57;3.50;;;11.30;99.90;;;;;;5031108;28;20419;-58
2023/10/18 04:09:46;;;;;;;8.27;3.63;;;11.30;99.90;;;;;;5030364;28;20057;-59
2023/10/18 04:12:17;;;;;;;9.05;3.35;;;11.30;99.90;;;;;;5029715;28;20076;-51
2023/10/18 04:14:52;;;;;;;7.85;3.00;;;11.30;99.90;;;;;;5031235;28;20041;-48
2023/10/18 04:17:19;;;;;;;6.95;3.10;;;11.30;99.90;;;;;;5031178;28;20067;-50
2023/10/18 04:19:47;;;;;;;11.82;3.65;;;11.30;99.90;;;;;;5030912;28;20022;-59
2023/10/18 04:22:13;;;;;;;9.40;3.38;;;11.20;99.90;;;;;;5030919;28;20370;-56
2023/10/18 04:24:39;;;;;;;10.15;5.07;;;11.20;99.90;;;;;;5030622;28;20028;-58
2023/10/18 04:27:05;;;;;;;7.38;3.10;;;11.20;99.90;;;;;;5030904;28;20029;-55
2023/10/18 04:29:33;;;;;;;10.15;3.55;;;11.20;99.90;;;;;;5031027;28;20129;-59
2023/10/18 04:32:06;;;;;;;7.13;2.90;;;11.20;99.90;;;;;;5030600;28;20446;-54
2023/10/18 04:34:33;;;;;;;10.15;3.30;;;11.20;99.90;;;;;;5030610;28;20028;-56
2023/10/18 04:37:00;;;;;;;7.80;3.60;;;11.10;99.90;;;;;;5029584;28;20427;-55
2023/10/18 04:39:27;;;;;;;7.78;3.45;;;11.10;99.90;;;;;;5030619;28;20673;-55
2023/10/18 04:41:53;;;;;;;9.52;3.50;;;11.20;99.90;;;;;;5030503;28;20029;-57
2023/10/18 04:44:20;;;;;;;11.07;3.53;;;11.10;99.90;;;;;;5029901;28;20087;-55
2023/10/18 04:46:52;;;;;;;10.85;3.88;;;11.10;99.90;;;;;;5030493;28;20040;-53
2023/10/18 04:49:31;;;;;;;8.85;3.42;;;11.20;99.90;;;;;;5030630;28;20128;-54
2023/10/18 04:52:00;;;;;;;8.02;3.38;;;11.20;99.90;;;;;;5030596;28;20508;-59
2023/10/18 04:54:54;;;;;;;11.23;3.72;;;11.20;99.90;;;;;;5030796;28;20095;-58
2023/10/18 04:57:15;;;;;;;5.70;3.05;;;11.20;99.90;;;;;;5030348;28;20053;-55
2023/10/18 04:59:47;;;;;;;6.63;3.70;;;11.20;99.90;;;;;;5030649;28;20053;-54
2023/10/18 05:02:26;;;;;;;7.03;3.47;;;11.20;99.90;;;;;;5030397;28;20105;-57
2023/10/18 05:04:54;;;;;;;8.00;3.42;;;11.20;99.90;;;;;;5030242;28;20044;-57
2023/10/18 05:07:20;;;;;;;12.55;3.80;;;11.20;99.90;;;;;;5030478;28;20029;-58
2023/10/18 05:09:46;;;;;;;14.80;3.97;;;11.20;99.90;;;;;;5030503;28;20041;-55
2023/10/18 05:17:35;;;;;;;9.65;3.05;;;11.20;99.90;;;;;;5030627;28;20045;-53
2023/10/18 05:20:16;;;;;;;6.80;3.47;;;11.20;99.90;;;;;;5030461;28;20058;-56
2023/10/18 05:22:43;;;;;;;6.13;3.20;;;11.30;99.90;;;;;;5030240;28;20021;-54
2023/10/18 05:25:21;;;;;;;6.35;3.17;;;11.30;99.90;;;;;;5030296;28;20049;-53
2023/10/18 05:36:29;;;;;;;9.00;3.58;;;11.30;99.90;;;;;;5030301;28;20091;-56
2023/10/18 05:38:56;;;;;;;6.13;3.28;;;11.30;99.90;;;;;;5030304;28;20032;-52
2023/10/18 05:43:59;;;;;;;7.78;3.38;;;11.40;99.90;;;;;;5030262;28;20026;-53
2023/10/18 05:46:33;;;;;;;8.25;3.65;;;11.40;99.90;;;;;;5029932;28;20400;-56
2023/10/18 05:49:00;;;;;;;10.70;3.75;;;11.40;99.90;;;;;;5020136;28;20436;-55
2023/10/18 05:51:26;;;;;;;10.57;3.42;;;11.40;99.90;;;;;;5033824;28;20032;-55
2023/10/18 05:54:04;;;;;;;9.90;4.07;;;11.40;99.90;;;;;;5033696;28;20040;-54
2023/10/18 05:56:31;;;;;;;11.07;3.58;;;11.40;99.90;;;;;;5033894;28;20053;-53
2023/10/18 05:59:27;;;;;;;9.10;4.18;;;11.40;99.90;;;;;;5033700;28;20388;-57
2023/10/18 06:01:54;;;;;;;7.70;3.10;;;11.40;99.90;;;;;;5033676;28;20021;-53
2023/10/18 06:04:55;;;;;;;14.52;3.63;;;11.40;99.90;;;;;;5033588;28;20022;-54
2023/10/18 06:07:13;;;;;;;9.38;3.50;;;11.40;99.90;;;;;;5032294;28;20041;-53
2023/10/18 06:09:46;;;;;;;8.10;3.97;;;11.50;99.90;;;;;;5033403;28;20059;-56
2023/10/18 06:12:22;;;;;;;9.68;3.15;;;11.40;99.90;;;;;;5033547;28;20380;-54
2023/10/18 06:14:51;;;;;;;8.18;3.63;;;11.40;99.90;;;;;;5033154;28;20037;-57
2023/10/18 06:17:26;;;;;;;10.05;4.10;;;11.50;99.90;;;;;;5033390;28;20029;-53
2023/10/18 06:19:52;;;;;;;6.78;3.38;;;11.50;99.90;;;;;;5033627;28;20037;-53
2023/10/18 06:22:39;;;;;;;7.60;3.85;;;11.50;99.90;;;;;;5033317;28;20022;-57
2023/10/18 06:25:06;;;;;;;13.05;3.42;;;11.50;99.90;;;;;;5033073;28;20041;-54
2023/10/18 06:27:38;;;;;;;8.70;3.70;;;11.50;99.90;;;;;;5031936;28;20112;-54
2023/10/18 06:30:17;;;;;;;9.63;3.58;;;11.50;99.90;;;;;;5033135;28;20037;-54
2023/10/18 06:32:45;;;;;;;5.72;3.08;;;11.50;99.90;;;;;;5033026;28;20049;-56
2023/10/18 06:35:31;;;;;;;8.10;3.85;;;11.50;99.90;;;;;;5032950;28;20033;-57
2023/10/18 06:37:57;;;;;;;6.93;3.50;;;11.50;99.90;;;;;;5032768;28;20061;-54
2023/10/18 06:40:40;;;;;;;9.70;3.63;;;11.50;99.90;;;;;;5031620;28;20068;-55
2023/10/18 06:43:06;;;;;;;9.13;3.05;;;11.50;99.90;;;;;;5032895;28;20039;-56
2023/10/18 06:45:36;;;;;;;8.90;3.38;;;11.50;99.90;;;;;;5032639;28;20063;-54
2023/10/18 06:48:03;;;;;;;7.63;3.53;;;11.50;99.90;;;;;;5032806;28;20057;-55
2023/10/18 06:50:30;;;;;;;9.05;2.70;;;11.50;99.90;;;;;;5032467;28;20045;-57
2023/10/18 06:52:56;;;;;;;4.95;3.05;;;11.50;99.90;;;;;;5032984;28;20104;-58
2023/10/18 06:58:13;;;;;;;8.23;2.67;;;11.50;99.90;;;;;;5032637;28;20095;-53
2023/10/18 07:00:43;;;;;;;10.75;3.28;;;11.60;99.90;;;;;;5031664;28;20083;-54
2023/10/18 07:03:16;;;;;;;7.93;2.72;;;11.60;99.90;;;;;;5032699;28;20025;-57
2023/10/18 07:05:44;;;;;;;8.48;3.10;;;11.60;99.90;;;;;;5032342;28;20560;-50
2023/10/18 07:08:19;;;;;;;11.32;3.85;;;11.70;99.90;;;;;;5032603;28;20022;-54
2023/10/18 07:10:57;;;;;;;9.77;3.30;;;11.70;99.90;;;;;;5032424;28;20038;-52
2023/10/18 07:13:46;;;;;;;5.47;2.75;;;11.70;99.90;;;;;;5032293;28;20060;-52
2023/10/18 07:16:12;;;;;;;8.48;3.20;;;11.70;99.90;;;;;;5031622;28;20034;-50
2023/10/18 07:18:45;;;;;;;6.85;3.03;;;11.70;99.90;;;;;;5032206;28;20387;-51
2023/10/18 07:21:19;;;;;;;6.43;2.88;;;11.70;99.90;;;;;;5031212;28;20517;-50
2023/10/18 07:23:55;;;;;;;8.43;3.08;;;11.80;99.90;;;;;;5032074;28;20037;-53
2023/10/18 07:26:22;;;;;;;7.20;3.03;;;11.80;99.90;;;;;;5029060;28;20025;-58
2023/10/18 07:28:49;;;;;;;6.85;2.83;;;11.80;99.90;;;;;;5031688;28;20037;-55
2023/10/18 07:31:18;;;;;;;10.00;3.88;;;11.80;99.90;;;;;;5031040;28;20448;-57
2023/10/18 07:33:44;;;;;;;6.07;3.17;;;11.80;99.90;;;;;;5031789;28;20049;-55
2023/10/18 07:36:18;;;;;;;6.68;3.13;;;11.80;99.90;;;;;;5031165;28;20084;-59
2023/10/18 07:38:55;;;;;;;5.65;2.78;;;11.90;99.90;;;;;;5031877;28;20071;-56
2023/10/18 07:41:26;;;;;;;5.68;2.67;;;11.90;99.90;;;;;;5031423;28;20132;-58
2023/10/18 07:43:55;;;;;;;5.45;2.70;;;11.90;99.90;;;;;;5031068;28;20029;-55
2023/10/18 07:46:24;;;;;;;6.97;3.42;;;11.90;99.90;;;;;;5031300;28;20052;-58
2023/10/18 07:48:53;;;;;;;6.03;2.50;;;11.90;99.90;;;;;;5031438;28;20057;-57
2023/10/18 07:51:25;;;;;;;7.00;3.78;;;11.90;99.90;;;;;;5031763;28;20032;-53
2023/10/18 07:53:55;;;;;;;6.43;3.10;;;11.90;99.90;;;;;;5027378;28;20025;-49
2023/10/18 07:56:29;;;;;;;5.78;2.80;;;11.90;99.90;;;;;;5031325;28;20033;-52
2023/10/18 07:59:27;;;;;;;5.55;3.17;;;11.90;99.90;;;;;;5025544;28;20021;-52
2023/10/18 08:01:51;;;;;;;10.05;3.67;;;11.90;99.90;;;;;;5026678;28;20033;-48
2023/10/18 08:04:19;;;;;;;6.35;2.97;;;11.90;99.90;;;;;;5030273;28;20088;-61
2023/10/18 08:06:45;;;;;;;6.43;3.35;;;11.90;99.90;;;;;;5029805;28;20123;-62
2023/10/18 08:09:12;;;;;;;7.30;3.80;;;11.90;99.90;;;;;;5031162;28;20054;-61
2023/10/18 08:11:38;;;;;;;7.57;2.55;;;11.90;99.90;;;;;;5030151;28;20022;-62
2023/10/18 08:14:10;;;;;;;7.32;3.38;;;11.90;99.90;;;;;;5030771;28;20354;-63
2023/10/18 08:16:44;;;;;;;6.35;3.15;;;11.90;99.90;;;;;;5030879;28;20424;-61
2023/10/18 08:19:13;;;;;;;8.05;3.40;;;12.00;99.90;;;;;;5026672;28;20388;-62
2023/10/18 08:21:39;;;;;;;8.45;3.28;;;12.00;99.90;;;;;;5031063;28;20656;-61
2023/10/18 08:24:09;;;;;;;11.40;3.92;;;12.00;99.90;;;;;;5030671;28;20056;-61
2023/10/18 08:26:51;;;;;;;13.48;3.80;;;12.10;99.90;;;;;;5030937;28;20116;-62
2023/10/18 08:29:17;;;;;;;8.27;3.80;;;12.20;99.90;;;;;;5030455;28;20090;-62
2023/10/18 08:31:55;;;;;;;7.03;3.65;;;12.20;99.90;;;;;;5030282;28;20049;-57
2023/10/18 08:34:23;;;;;;;6.72;3.53;;;12.20;99.90;;;;;;5030500;28;20396;-61
2023/10/18 08:37:01;;;;;;;9.70;3.65;;;12.20;99.90;;;;;;5030643;28;20375;-62
2023/10/18 08:39:27;;;;;;;7.38;3.92;;;12.30;99.90;;;;;;5030901;28;20064;-62
2023/10/18 08:42:14;;;;;;;10.38;3.25;;;12.40;99.90;;;;;;5030489;28;20519;-62
2023/10/18 08:44:40;;;;;;;8.13;3.10;;;12.40;99.90;;;;;;5030839;28;20030;-62
2023/10/18 08:49:56;;;;;;;8.52;3.58;;;12.50;99.90;;;;;;5030277;28;20063;-62
2023/10/18 08:52:30;;;;;;;7.13;2.97;;;12.50;99.90;;;;;;5030608;28;20072;-62
2023/10/18 08:54:59;;;;;;;9.88;3.67;;;12.50;99.90;;;;;;5030700;28;20100;-59
2023/10/18 08:57:34;;;;;;;9.57;3.50;;;12.50;99.90;;;;;;5030467;28;20032;-63
2023/10/18 09:01:02;;;;;;;8.85;3.25;;;12.50;99.90;;;;;;5030752;28;20104;-62
2023/10/18 09:03:07;;;;;;;6.55;3.25;;;12.50;99.90;;;;;;5018919;28;20104;-62
2023/10/18 09:05:35;;;;;;;9.90;4.22;;;12.50;99.90;;;;;;5030434;28;20029;-61
2023/10/18 09:08:03;;;;;;;7.35;3.65;;;12.50;99.90;;;;;;5030418;28;20376;-61
2023/10/18 09:10:42;;;;;;;8.13;3.60;;;12.50;99.90;;;;;;5030566;28;20041;-61
2023/10/18 09:18:23;;;;;;;11.27;3.83;;;12.60;99.90;;;;;;5030220;28;20029;-61
2023/10/18 09:20:49;;;;;;;8.23;3.72;;;12.60;99.90;;;;;;5029582;28;20476;-61
2023/10/18 09:23:21;;;;;;;11.43;4.00;;;12.60;99.90;;;;;;5023892;28;20034;-66
2023/10/18 09:25:48;;;;;;;6.82;3.38;;;12.70;99.90;;;;;;5031543;28;20053;-60
2023/10/18 09:28:32;;;;;;;8.57;3.83;;;12.70;99.90;;;;;;5032656;28;20082;-60
2023/10/18 09:31:21;;;;;;;6.20;3.30;;;12.80;99.90;;;;;;5033704;28;20476;-61
2023/10/18 09:33:51;;;;;;;9.27;3.67;;;13.00;99.90;;;;;;5029981;28;20045;-60
2023/10/18 09:36:20;;;;;;;7.95;3.60;;;13.10;99.90;;;;;;5033117;28;20065;-60
2023/10/18 09:38:48;;;;;;;7.43;3.58;;;13.20;99.90;;;;;;5033231;28;20383;-60
2023/10/18 09:41:15;;;;;;;8.68;3.80;;;13.30;99.90;;;;;;5033531;28;20124;-60
2023/10/18 09:43:41;;;;;;;6.25;3.35;;;13.40;99.90;;;;;;5033714;28;20362;-62
2023/10/18 09:46:10;;;;;;;7.38;3.15;;;13.60;99.90;;;;;;5031963;28;20104;-59
2023/10/18 09:48:41;;;;;;;7.30;3.47;;;13.70;99.90;;;;;;5031771;28;20425;-60
2023/10/18 09:51:08;;;;;;;8.27;3.30;;;13.80;99.90;;;;;;5023950;28;20029;-59
2023/10/18 09:53:53;;;;;;;6.50;3.35;;;13.90;99.90;;;;;;5031443;28;20103;-59
2023/10/18 09:56:24;;;;;;;11.60;3.80;;;13.90;99.90;;;;;;5026182;28;20025;-60
2023/10/18 09:58:51;;;;;;;6.38;3.38;;;13.90;99.90;;;;;;5032960;28;20113;-61
2023/10/18 10:01:27;;;;;;;5.90;2.88;;;13.90;99.90;;;;;;5033822;28;20018;-59
2023/10/18 10:03:56;;;;;;;5.45;2.97;;;13.80;99.90;;;;;;5032397;28;20116;-61
2023/10/18 10:06:24;;;;;;;7.75;3.67;;;13.80;99.90;;;;;;5032541;28;20021;-59
2023/10/18 10:08:55;;;;;;;10.00;3.53;;;13.80;99.90;;;;;;5032500;28;20041;-60
2023/10/18 10:11:22;;;;;;;8.10;3.13;;;13.80;99.90;;;;;;5032448;28;20043;-60
2023/10/18 10:13:52;;;;;;;8.52;3.47;;;13.80;99.90;;;;;;5032272;28;20444;-61
2023/10/18 10:16:24;;;;;;;11.15;3.25;;;13.80;99.90;;;;;;5031589;28;20030;-60
2023/10/18 10:18:52;;;;;;;7.43;3.20;;;13.80;99.90;;;;;;5033503;28;20076;-59
2023/10/18 10:21:21;;;;;;;9.02;4.15;;;13.80;99.90;;;;;;5033546;28;20029;-59
2023/10/18 10:23:51;;;;;;;8.32;3.30;;;13.70;99.90;;;;;;5033569;28;20029;-60
2023/10/18 10:26:22;;;;;;;6.70;2.85;;;13.70;99.90;;;;;;5033350;28;20021;-59
2023/10/18 10:31:56;;;;;;;5.88;3.20;;;13.70;99.90;;;;;;5033077;28;20021;-61
2023/10/18 10:34:32;;;;;;;9.55;3.47;;;13.70;99.90;;;;;;5033096;28;20037;-59
2023/10/18 10:37:23;;;;;;;7.75;3.22;;;13.70;99.90;;;;;;5032777;28;20025;-60
2023/10/18 10:40:19;;;;;;;6.55;2.80;;;13.70;99.90;;;;;;5032910;28;20433;-60
2023/10/18 10:42:44;;;;;;;6.22;3.50;;;13.80;99.90;;;;;;5032958;28;20464;-61
2023/10/18 10:45:32;;;;;;;7.00;3.17;;;13.70;99.90;;;;;;5032737;28;20042;-59
2023/10/18 10:51:08;;;;;;;6.05;2.95;;;13.80;99.90;;;;;;5032817;28;20033;-60
2023/10/18 10:53:45;;;;;;;8.75;3.20;;;13.80;99.90;;;;;;5032747;28;20021;-60
2023/10/18 10:56:20;;;;;;;4.72;2.60;;;13.80;99.90;;;;;;5032751;28;20372;-58
2023/10/18 10:58:55;;;;;;;8.55;3.20;;;13.90;99.90;;;;;;5032616;28;20018;-58
2023/10/18 11:01:57;;;;;;;6.50;3.25;;;14.00;99.90;;;;;;5032448;28;20029;-58
2023/10/18 11:04:27;;;;;;;9.48;3.40;;;14.10;99.90;;;;;;5016434;28;20030;-56
2023/10/18 11:06:57;;;;;;;6.70;3.10;;;14.20;99.90;;;;;;5032813;28;20071;-58
2023/10/18 11:09:38;;;;;;;4.93;3.10;;;14.40;99.90;;;;;;5032499;28;20121;-56
2023/10/18 11:12:07;;;;;;;7.03;3.33;;;14.50;99.90;;;;;;5032617;28;20037;-58
2023/10/18 11:14:36;;;;;;;9.05;3.22;;;14.60;99.90;;;;;;5032487;28;20017;-59
2023/10/18 11:17:17;;;;;;;7.43;3.10;;;14.60;99.90;;;;;;5032447;28;20037;-58
2023/10/18 11:19:43;;;;;;;9.27;4.32;;;14.60;99.90;;;;;;5032168;28;20029;-58
2023/10/18 11:22:19;;;;;;;8.23;3.78;;;14.60;99.90;;;;;;5032363;28;20061;-58
2023/10/18 11:24:49;;;;;;;5.93;3.10;;;14.80;99.90;;;;;;5032152;28;20032;-57
2023/10/18 11:27:17;;;;;;;7.55;3.38;;;14.80;99.90;;;;;;5032300;28;20465;-58
2023/10/18 11:29:43;;;;;;;6.25;3.15;;;14.80;99.90;;;;;;5031997;28;20040;-59
2023/10/18 11:32:18;;;;;;;6.22;3.03;;;14.80;99.90;;;;;;5032013;28;20037;-58
2023/10/18 11:34:45;;;;;;;7.57;3.35;;;14.80;99.90;;;;;;5031978;28;20018;-58
2023/10/18 11:37:14;;;;;;;7.68;3.22;;;14.80;99.90;;;;;;5032120;28;20739;-58
2023/10/18 11:39:42;;;;;;;9.40;3.55;;;14.70;99.90;;;;;;5031790;28;20491;-60
2023/10/18 11:42:10;;;;;;;6.40;2.97;;;14.70;99.90;;;;;;5031890;28;20030;-58
2023/10/18 11:44:39;;;;;;;6.32;3.60;;;14.60;99.90;;;;;;5031715;28;20021;-58
2023/10/18 11:47:20;;;;;;;5.68;3.28;;;14.60;99.90;;;;;;5031513;28;20017;-59
2023/10/18 11:49:52;;;;;;;6.82;2.78;;;14.60;99.90;;;;;;5031537;28;20065;-59
2023/10/18 11:52:22;;;;;;;8.93;3.78;;;14.60;99.90;;;;;;5031712;28;20033;-57
2023/10/18 11:54:52;;;;;;;7.05;3.35;;;14.50;99.90;;;;;;5031673;28;20127;-58
2023/10/18 11:57:24;;;;;;;5.87;3.30;;;14.40;99.90;;;;;;5031918;28;20052;-59
2023/10/18 11:59:52;;;;;;;7.20;3.30;;;14.40;99.90;;;;;;5031653;28;20044;-59
2023/10/18 12:02:18;;;;;;;8.15;4.57;;;14.40;99.90;;;;;;5031543;28;20051;-57
2023/10/18 12:04:45;;;;;;;9.23;4.43;;;14.30;99.90;;;;;;5031598;28;20029;-58
2023/10/18 12:07:13;;;;;;;10.15;4.32;;;14.40;99.90;;;;;;5031351;28;20104;-58
2023/10/18 12:09:46;;;;;;;10.52;4.30;;;14.40;99.90;;;;;;5031420;28;20040;-57
2023/10/18 12:12:19;;;;;;;6.82;3.50;;;14.30;99.90;;;;;;5031381;28;20037;-56
2023/10/18 12:14:45;;;;;;;13.50;3.80;;;14.30;99.90;;;;;;5031278;28;20488;-57
2023/10/18 12:17:15;;;;;;;10.57;3.30;;;14.20;99.90;;;;;;5031331;28;20049;-59
2023/10/18 12:19:42;;;;;;;8.82;3.17;;;14.10;99.90;;;;;;5031172;28;20100;-59
2023/10/18 12:22:09;;;;;;;10.90;3.53;;;14.10;99.90;;;;;;5031497;28;20140;-60
2023/10/18 12:24:35;;;;;;;5.45;2.90;;;14.10;99.90;;;;;;5031245;28;20025;-59
2023/10/18 12:30:51;;;;;;;10.23;4.15;;;14.00;99.90;;;;;;5008937;28;20440;-58
2023/10/18 12:32:54;;;;;;;8.43;3.10;;;14.00;99.90;;;;;;5020613;28;20057;-58
2023/10/18 12:35:20;;;;;;;9.23;3.45;;;13.90;99.90;;;;;;5031289;28;20026;-58
2023/10/18 12:37:47;;;;;;;9.07;3.92;;;13.90;99.90;;;;;;5031067;28;20444;-58
2023/10/18 12:40:28;;;;;;;7.40;3.63;;;13.90;99.90;;;;;;5030961;28;20033;-59
2023/10/18 12:43:05;;;;;;;6.18;3.72;;;13.80;99.90;;;;;;5030777;28;20527;-57
2023/10/18 12:45:43;;;;;;;6.75;3.33;;;13.80;99.90;;;;;;5031206;28;20131;-58
2023/10/18 12:48:09;;;;;;;13.90;3.92;;;13.80;99.90;;;;;;5029927;28;20061;-58
2023/10/18 12:50:35;;;;;;;9.38;4.13;;;13.80;99.90;;;;;;5030660;28;20148;-59
2023/10/18 12:55:45;;;;;;;8.43;3.55;;;13.60;99.90;;;;;;5030889;28;20028;-53
2023/10/18 12:58:18;;;;;;;7.05;4.18;;;13.50;99.90;;;;;;5030080;28;20022;-54
2023/10/18 13:00:45;;;;;;;8.23;4.43;;;13.40;99.90;;;;;;5027538;28;20026;-52
2023/10/18 13:05:46;;;;;;;10.83;4.47;;;13.20;99.90;;;;;;5026629;28;20022;-51
2023/10/18 13:08:27;;;;;;;11.23;5.00;;;13.20;99.90;;;;;;5027280;28;20266;-53
2023/10/18 13:13:30;;;;;;;11.45;4.28;;;13.20;99.90;;;;;;5030544;28;20025;-56
2023/10/18 13:15:57;;;;;;;13.13;5.07;;;13.20;99.90;;;;;;5026641;28;20061;-55
2023/10/18 13:18:25;;;;;;;11.95;5.32;;;13.20;99.90;;;;;;5030457;28;20025;-58
2023/10/18 13:20:55;;;;;;;12.93;5.15;;;13.20;99.90;;;;;;5030488;28;20033;-51
2023/10/18 13:23:27;;;;;;;9.77;4.93;;;13.20;99.90;;;;;;5030321;28;20029;-55
2023/10/18 13:25:53;;;;;;;10.60;5.10;;;13.20;99.90;;;;;;5024459;28;20025;-57
2023/10/18 13:28:24;;;;;;;10.00;4.85;;;13.20;99.90;;;;;;5030242;28;20384;-52
2023/10/18 13:30:54;;;;;;;11.07;5.30;;;13.20;99.90;;;;;;5030330;28;20037;-56
2023/10/18 13:33:19;;;;;;;12.57;5.25;;;13.20;99.90;;;;;;5030031;28;20046;-53
2023/10/18 13:35:45;;;;;;;10.40;5.57;;;13.20;99.90;;;;;;5029073;28;20499;-49
2023/10/18 13:38:15;;;;;;;9.95;5.32;;;13.20;99.90;;;;;;5029228;28;20476;-53
2023/10/18 13:40:43;;;;;;;9.70;5.93;;;13.20;99.90;;;;;;5029830;28;20056;-45
2023/10/18 13:43:09;;;;;;;9.13;5.05;;;13.20;99.90;;;;;;5030076;28;20108;-49
2023/10/18 13:45:37;;;;;;;13.65;5.95;;;13.40;99.90;;;;;;5030147;28;20033;-50
2023/10/18 13:48:03;;;;;;;11.80;5.72;;;13.30;99.90;;;;;;5030272;28;20014;-52
2023/10/18 13:50:38;;;;;;;12.63;5.82;;;13.40;99.90;;;;;;5030109;28;20038;-46
2023/10/18 13:53:04;;;;;;;11.75;5.95;;;13.40;99.90;;;;;;5029676;28;20030;-45
2023/10/18 13:55:30;;;;;;;10.25;5.70;;;13.40;99.90;;;;;;5029300;28;20587;-46
2023/10/18 13:57:57;;;;;;;12.35;5.50;;;13.50;99.90;;;;;;5027372;28;20116;-48
2023/10/18 14:00:24;;;;;;;11.40;5.40;;;13.50;99.90;;;;;;5029256;28;20018;-51